< < Back
Terminal Aerodrome Forecast


Current Version              Previous Versions:   1  2  3  4  5  6  7  8  9  

Terminal Aerodrome Forecast

194
FTUS42 KGSP 301720
TAFAND
TAF
KAND 301720Z 3018/3118 08008KT P6SM SKC
     FM310800 03003KT P6SM SCT045
     FM311500 06003KT P6SM FEW045 SCT150
     FM311700 29004KT P6SM FEW045 SCT150=

Latest METAR

801
SAUS70 KWBC 311000 RRI
MTRAND
METAR KAND 310956Z AUTO 00000KT 10SM CLR 07/04 A2992 RMK AO2 SLP131
T00670039


USA.gov is the U.S. government's official web portal to all federal, state and local government web resources and services.